createdAt,value
2018-05-17T00:02:02.460Z,6.20
2018-05-17T00:04:30.694Z,6.27
2018-05-17T00:06:58.918Z,6.67
2018-05-17T00:09:27.170Z,6.57
2018-05-17T00:11:56.159Z,6.40
2018-05-17T00:14:24.407Z,6.83
2018-05-17T00:16:52.640Z,6.83
2018-05-17T00:19:20.884Z,6.23
2018-05-17T00:21:49.131Z,6.80
2018-05-17T00:24:17.371Z,6.53
2018-05-17T00:26:45.606Z,6.77
2018-05-17T00:29:13.852Z,6.90
2018-05-17T00:31:42.083Z,6.67
2018-05-17T00:34:10.332Z,7.17
2018-05-17T00:36:38.788Z,7.33
2018-05-17T00:39:07.025Z,7.10
2018-05-17T00:41:35.248Z,6.60
2018-05-17T00:44:03.505Z,6.90
2018-05-17T00:46:32.507Z,7.63
2018-05-17T00:49:01.522Z,6.93
2018-05-17T00:51:29.751Z,7.17
2018-05-17T00:53:57.997Z,6.33
2018-05-17T00:56:26.228Z,5.83
2018-05-17T00:58:54.484Z,6.77
2018-05-17T01:01:23.487Z,6.60
2018-05-17T01:03:52.513Z,6.40
2018-05-17T01:06:20.749Z,6.57
2018-05-17T01:08:49.752Z,6.37
2018-05-17T01:11:17.983Z,6.33
2018-05-17T01:13:46.213Z,5.87
2018-05-17T01:16:14.460Z,6.93
2018-05-17T01:18:43.466Z,6.73
2018-05-17T01:21:11.722Z,6.27
2018-05-17T01:23:40.740Z,6.20
2018-05-17T01:26:09.726Z,6.40
2018-05-17T01:28:37.972Z,6.30
2018-05-17T01:31:06.218Z,7.17
2018-05-17T01:33:34.448Z,6.30
2018-05-17T01:36:03.016Z,6.83
2018-05-17T01:38:32.016Z,6.77
2018-05-17T01:41:01.027Z,6.17
2018-05-17T01:43:29.662Z,6.30
2018-05-17T01:45:57.878Z,5.77
2018-05-17T01:48:26.115Z,5.80
2018-05-17T01:50:54.358Z,6.43
2018-05-17T01:53:22.587Z,6.80
2018-05-17T01:55:50.842Z,5.77
2018-05-17T01:58:19.835Z,6.23
2018-05-17T02:00:48.855Z,5.77
2018-05-17T02:03:17.087Z,5.93
2018-05-17T02:05:45.332Z,6.10
2018-05-17T02:08:13.554Z,6.50
2018-05-17T02:10:42.558Z,6.73
2018-05-17T02:13:10.787Z,6.70
2018-05-17T02:15:39.031Z,6.73
2018-05-17T02:18:07.258Z,7.00
2018-05-17T02:20:36.270Z,6.93
2018-05-17T02:23:04.490Z,6.33
2018-05-17T02:25:32.727Z,6.97
2018-05-17T02:28:00.955Z,6.90
2018-05-17T02:30:29.199Z,6.70
2018-05-17T02:32:57.436Z,6.33
2018-05-17T02:35:26.442Z,6.57
2018-05-17T02:37:54.668Z,7.37
2018-05-17T02:40:22.908Z,6.70
2018-05-17T02:42:51.142Z,6.03
2018-05-17T02:45:20.162Z,7.00
2018-05-17T02:47:48.390Z,6.53
2018-05-17T02:50:16.611Z,6.97
2018-05-17T02:52:44.858Z,6.53
2018-05-17T02:55:13.091Z,6.70
2018-05-17T02:57:41.330Z,6.37
2018-05-17T03:00:09.558Z,6.97
2018-05-17T03:02:37.801Z,6.47
2018-05-17T03:05:06.030Z,6.83
2018-05-17T03:07:34.277Z,7.73
2018-05-17T03:10:02.866Z,6.87
2018-05-17T03:12:31.195Z,6.77
2018-05-17T03:14:59.411Z,6.87
2018-05-17T03:17:28.428Z,6.40
2018-05-17T03:19:56.654Z,6.63
2018-05-17T03:22:24.896Z,6.63
2018-05-17T03:24:53.118Z,7.17
2018-05-17T03:27:21.360Z,7.33
2018-05-17T03:29:49.584Z,6.40
2018-05-17T03:32:18.588Z,6.63
2018-05-17T03:34:46.812Z,7.47
2018-05-17T03:37:15.050Z,6.77
2018-05-17T03:39:43.272Z,6.50
2018-05-17T03:42:11.515Z,7.07
2018-05-17T03:44:39.737Z,6.40
2018-05-17T03:47:09.127Z,5.80
2018-05-17T03:49:37.322Z,6.50
2018-05-17T03:52:06.327Z,6.73
2018-05-17T03:54:34.558Z,5.83
2018-05-17T03:57:02.791Z,6.20
2018-05-17T03:59:31.019Z,6.70
2018-05-17T04:02:11.159Z,6.70
2018-05-17T04:04:51.174Z,6.23
2018-05-17T04:07:19.427Z,6.23
2018-05-17T04:09:47.642Z,5.87
2018-05-17T04:12:15.879Z,6.73
2018-05-17T04:14:44.104Z,6.27
2018-05-17T04:17:12.344Z,6.90
2018-05-17T04:19:40.566Z,7.17
2018-05-17T04:22:09.574Z,6.83
2018-05-17T04:24:38.569Z,7.30
2018-05-17T04:27:06.808Z,6.53
2018-05-17T04:29:35.033Z,6.00
2018-05-17T04:32:03.266Z,6.40
2018-05-17T04:34:32.263Z,5.90
2018-05-17T04:37:01.287Z,6.83
2018-05-17T04:39:30.028Z,6.50
2018-05-17T04:41:58.222Z,6.90
2018-05-17T04:44:27.235Z,6.73
2018-05-17T04:46:55.467Z,6.40
2018-05-17T04:49:23.705Z,7.13
2018-05-17T04:51:51.934Z,6.90
2018-05-17T04:54:20.951Z,7.10
2018-05-17T04:56:49.196Z,6.47
2018-05-17T04:59:17.406Z,6.70
2018-05-17T05:01:45.630Z,6.43
2018-05-17T05:04:13.871Z,7.40
2018-05-17T05:06:42.095Z,7.03
2018-05-17T05:09:11.106Z,7.13
2018-05-17T05:11:39.327Z,6.67
2018-05-17T05:14:07.567Z,7.17
2018-05-17T05:16:35.791Z,7.13
2018-05-17T05:19:04.034Z,7.33
2018-05-17T05:21:32.262Z,7.20
2018-05-17T05:24:00.531Z,7.00
2018-05-17T05:26:28.739Z,7.30
2018-05-17T05:28:57.013Z,6.50
2018-05-17T05:31:25.232Z,7.40
2018-05-17T05:33:53.467Z,6.97
2018-05-17T05:36:21.690Z,7.63
2018-05-17T05:38:50.698Z,7.47
2018-05-17T05:41:18.930Z,7.83
2018-05-17T05:43:47.279Z,6.67
2018-05-17T05:46:15.499Z,7.23
2018-05-17T05:48:44.508Z,6.90
2018-05-17T05:51:12.734Z,6.73
2018-05-17T05:53:40.970Z,7.27
2018-05-17T05:56:09.205Z,7.50
2018-05-17T05:58:37.438Z,7.70
2018-05-17T06:01:05.670Z,8.83
2018-05-17T06:03:34.667Z,8.00
2018-05-17T06:06:04.059Z,7.77
2018-05-17T06:08:33.062Z,9.37
2018-05-17T06:11:01.472Z,9.40
2018-05-17T06:13:29.701Z,10.63
2018-05-17T06:15:58.698Z,11.90
2018-05-17T06:18:27.735Z,13.00
2018-05-17T06:20:56.354Z,12.10
2018-05-17T06:23:24.576Z,12.43
2018-05-17T06:25:52.822Z,12.77
2018-05-17T06:28:21.826Z,14.10
2018-05-17T06:30:50.276Z,13.67
2018-05-17T06:33:19.274Z,13.83
2018-05-17T06:35:48.282Z,14.57
2018-05-17T06:38:16.520Z,14.40
2018-05-17T06:40:44.775Z,14.83
2018-05-17T06:43:13.007Z,13.67
2018-05-17T06:45:41.257Z,14.57
2018-05-17T06:48:10.247Z,13.90
2018-05-17T06:50:39.259Z,14.27
2018-05-17T06:53:07.491Z,13.00
2018-05-17T06:55:35.742Z,13.30
2018-05-17T06:58:03.990Z,12.80
2018-05-17T07:00:33.088Z,12.90
2018-05-17T07:03:01.230Z,11.37
2018-05-17T07:05:30.250Z,11.87
2018-05-17T07:07:58.486Z,11.77
2018-05-17T07:10:27.159Z,12.37
2018-05-17T07:12:56.104Z,11.37
2018-05-17T07:15:24.369Z,11.10
2018-05-17T07:17:52.622Z,11.13
2018-05-17T07:20:20.846Z,9.87
2018-05-17T07:22:49.462Z,9.90
2018-05-17T07:25:17.678Z,10.10
2018-05-17T07:27:45.910Z,9.47
2018-05-17T07:30:14.158Z,9.20
2018-05-17T07:32:42.382Z,10.07
2018-05-17T07:35:12.881Z,7.87
2018-05-17T07:37:41.210Z,7.70
2018-05-17T07:40:09.455Z,7.83
2018-05-17T07:42:38.473Z,7.80
2018-05-17T07:45:06.760Z,6.90
2018-05-17T07:47:34.983Z,6.87
2018-05-17T07:50:03.994Z,6.70
2018-05-17T07:52:32.223Z,6.13
2018-05-17T07:55:00.464Z,6.63
2018-05-17T07:57:28.694Z,6.27
2018-05-17T07:59:57.710Z,6.73
2018-05-17T08:02:25.945Z,6.57
2018-05-17T08:04:54.191Z,7.40
2018-05-17T08:07:22.418Z,6.50
2018-05-17T08:09:51.430Z,7.40
2018-05-17T08:12:19.674Z,6.87
2018-05-17T08:14:48.799Z,7.10
2018-05-17T08:17:17.825Z,6.50
2018-05-17T08:19:46.407Z,6.67
2018-05-17T08:22:14.635Z,6.43
2018-05-17T08:24:42.905Z,6.43
2018-05-17T08:27:11.902Z,6.10
2018-05-17T08:29:40.136Z,6.80
2018-05-17T08:32:08.384Z,6.77
2018-05-17T08:34:36.616Z,6.27
2018-05-17T08:37:05.632Z,6.03
2018-05-17T08:39:33.884Z,6.30
2018-05-17T08:42:02.915Z,7.60
2018-05-17T08:44:31.147Z,6.67
2018-05-17T08:47:00.164Z,6.13
2018-05-17T08:49:28.403Z,6.87
2018-05-17T08:51:57.423Z,7.37
2018-05-17T08:54:25.739Z,7.30
2018-05-17T08:56:53.899Z,7.60
2018-05-17T08:59:22.133Z,6.63
2018-05-17T09:01:50.392Z,6.80
2018-05-17T09:04:19.398Z,7.20
2018-05-17T09:06:47.651Z,6.77
2018-05-17T09:09:16.647Z,6.77
2018-05-17T09:11:45.658Z,6.30
2018-05-17T09:14:14.310Z,6.47
2018-05-17T09:16:42.532Z,6.80
2018-05-17T09:19:10.768Z,6.50
2018-05-17T09:21:39.859Z,7.20
2018-05-17T09:24:08.172Z,6.87
2018-05-17T09:26:36.403Z,7.23
2018-05-17T09:29:04.655Z,7.07
2018-05-17T09:31:32.894Z,6.57
2018-05-17T09:34:01.251Z,6.50
2018-05-17T09:36:29.423Z,6.50
2018-05-17T09:38:57.683Z,6.23
2018-05-17T09:41:26.832Z,6.90
2018-05-17T09:43:55.033Z,6.53
2018-05-17T09:46:23.270Z,6.37
2018-05-17T09:48:51.506Z,7.37
2018-05-17T09:51:20.530Z,6.27
2018-05-17T09:53:48.759Z,6.37
2018-05-17T09:56:18.151Z,6.13
2018-05-17T09:58:47.143Z,6.60
2018-05-17T10:01:15.379Z,6.50
2018-05-17T10:03:43.623Z,6.70
2018-05-17T10:06:11.857Z,6.87
2018-05-17T10:08:40.106Z,5.90
2018-05-17T10:11:08.339Z,6.07
2018-05-17T10:13:37.283Z,6.33
2018-05-17T10:16:05.519Z,6.23
2018-05-17T10:18:33.767Z,5.80
2018-05-17T10:21:02.767Z,5.67
2018-05-17T10:23:31.072Z,6.87
2018-05-17T10:26:00.019Z,5.87
2018-05-17T10:28:29.024Z,6.73
2018-05-17T10:30:57.259Z,5.97
2018-05-17T10:33:25.502Z,6.17
2018-05-17T10:35:53.738Z,6.47
2018-05-17T10:38:22.755Z,6.47
2018-05-17T10:40:50.994Z,6.23
2018-05-17T10:43:19.264Z,6.40
2018-05-17T10:45:47.500Z,6.90
2018-05-17T10:48:15.736Z,6.33
2018-05-17T10:50:43.984Z,7.00
2018-05-17T10:53:12.222Z,6.70
2018-05-17T10:55:40.476Z,6.57
2018-05-17T10:58:08.707Z,6.50
2018-05-17T11:00:37.727Z,6.80
2018-05-17T11:03:06.720Z,5.90
2018-05-17T11:05:34.971Z,6.57
2018-05-17T11:08:03.970Z,5.80
2018-05-17T11:10:32.993Z,6.60
2018-05-17T11:13:01.539Z,6.47
2018-05-17T11:15:30.543Z,5.70
2018-05-17T11:17:58.779Z,6.47
2018-05-17T11:20:27.023Z,5.83
2018-05-17T11:22:55.266Z,5.90
2018-05-17T11:25:23.519Z,5.93
2018-05-17T11:27:52.520Z,5.70
2018-05-17T11:30:21.540Z,6.10
2018-05-17T11:32:49.769Z,5.57
2018-05-17T11:35:18.014Z,6.13
2018-05-17T11:37:46.253Z,5.77
2018-05-17T11:40:14.500Z,6.20
2018-05-17T11:42:43.504Z,6.40
2018-05-17T11:45:12.530Z,5.90
2018-05-17T11:47:40.762Z,6.03
2018-05-17T11:50:09.766Z,5.73
2018-05-17T11:52:38.784Z,5.57
2018-05-17T11:55:07.016Z,6.43
2018-05-17T11:57:36.147Z,5.77
2018-05-17T12:00:05.223Z,5.80
2018-05-17T12:02:33.585Z,5.97
2018-05-17T12:05:01.731Z,6.20
2018-05-17T12:07:30.608Z,5.83
2018-05-17T12:09:58.849Z,6.03
2018-05-17T12:12:27.098Z,6.23
2018-05-17T12:14:56.099Z,6.27
2018-05-17T12:17:24.350Z,6.00
2018-05-17T12:19:53.347Z,5.90
2018-05-17T12:22:22.359Z,5.63
2018-05-17T12:24:50.599Z,6.00
2018-05-17T12:27:18.840Z,6.40
2018-05-17T12:29:47.075Z,5.73
2018-05-17T12:32:15.327Z,6.10
2018-05-17T12:34:43.572Z,7.27
2018-05-17T12:37:11.867Z,6.00
2018-05-17T12:39:40.077Z,6.17
2018-05-17T12:42:08.545Z,5.63
2018-05-17T12:44:36.752Z,5.90
2018-05-17T12:47:05.003Z,5.93
2018-05-17T12:49:33.247Z,6.00
2018-05-17T12:52:01.486Z,6.53
2018-05-17T12:54:29.727Z,6.53
2018-05-17T12:56:57.979Z,6.33
2018-05-17T12:59:26.973Z,6.37
2018-05-17T13:01:55.994Z,6.10
2018-05-17T13:04:24.232Z,6.37
2018-05-17T13:06:53.237Z,6.47
2018-05-17T13:09:22.239Z,6.17
2018-05-17T13:11:50.480Z,6.13
2018-05-17T13:14:18.710Z,5.67
2018-05-17T13:16:46.942Z,5.70
2018-05-17T13:19:16.327Z,6.00
2018-05-17T13:21:44.545Z,5.90
2018-05-17T13:24:12.787Z,6.27
2018-05-17T13:26:41.792Z,6.70
2018-05-17T13:29:10.803Z,6.30
2018-05-17T13:31:39.043Z,5.63
2018-05-17T13:34:08.066Z,6.53
2018-05-17T13:36:36.335Z,6.27
2018-05-17T13:39:06.063Z,6.30
2018-05-17T13:41:34.278Z,6.30
2018-05-17T13:44:02.963Z,6.10
2018-05-17T13:46:31.647Z,6.00
2018-05-17T13:48:59.861Z,6.73
2018-05-17T13:51:28.103Z,6.73
2018-05-17T13:53:57.114Z,6.00
2018-05-17T13:56:25.348Z,5.70
2018-05-17T13:58:53.594Z,5.67
2018-05-17T14:01:21.826Z,6.07
2018-05-17T14:03:50.842Z,5.93
2018-05-17T14:06:19.083Z,5.60
2018-05-17T14:08:48.100Z,5.53
2018-05-17T14:11:16.326Z,6.10
2018-05-17T14:13:44.644Z,5.97
2018-05-17T14:16:12.806Z,5.57
2018-05-17T14:18:41.851Z,6.17
2018-05-17T14:21:10.080Z,5.63
2018-05-17T14:23:38.743Z,5.57
2018-05-17T14:26:06.989Z,5.47
2018-05-17T14:28:35.215Z,5.10
2018-05-17T14:31:03.463Z,5.80
2018-05-17T14:33:31.694Z,5.37
2018-05-17T14:35:59.940Z,5.30
2018-05-17T14:38:28.172Z,5.73
2018-05-17T14:40:56.418Z,6.53
2018-05-17T14:43:24.652Z,6.30
2018-05-17T14:45:52.895Z,6.87
2018-05-17T14:48:21.130Z,6.73
2018-05-17T14:50:49.379Z,7.00
2018-05-17T14:53:17.615Z,7.30
2018-05-17T14:55:45.899Z,7.20
2018-05-17T14:58:14.098Z,7.17
2018-05-17T15:00:42.338Z,8.07
2018-05-17T15:03:10.567Z,8.27
2018-05-17T15:05:38.812Z,8.57
2018-05-17T15:08:07.811Z,7.77
2018-05-17T15:10:36.058Z,7.93
2018-05-17T15:13:05.064Z,8.07
2018-05-17T15:15:34.078Z,9.17
2018-05-17T15:18:02.311Z,8.60
2018-05-17T15:20:30.563Z,8.63
2018-05-17T15:22:58.793Z,8.27
2018-05-17T15:25:27.043Z,8.47
2018-05-17T15:27:56.047Z,8.03
2018-05-17T15:30:25.071Z,8.83
2018-05-17T15:32:53.316Z,9.03
2018-05-17T15:35:22.326Z,9.10
2018-05-17T15:37:51.403Z,8.80
2018-05-17T15:40:20.011Z,8.73
2018-05-17T15:42:48.436Z,9.03
2018-05-17T15:45:16.733Z,8.93
2018-05-17T15:47:44.931Z,8.60
2018-05-17T15:50:13.273Z,9.17
2018-05-17T15:52:42.356Z,8.53
2018-05-17T15:55:10.732Z,9.23
2018-05-17T15:57:38.969Z,9.13
2018-05-17T16:00:07.206Z,9.30
2018-05-17T16:02:36.323Z,8.80
2018-05-17T16:05:04.695Z,9.27
2018-05-17T16:07:33.060Z,8.77
2018-05-17T16:10:01.318Z,8.33
2018-05-17T16:12:30.334Z,9.37
2018-05-17T16:14:58.911Z,8.73
2018-05-17T16:17:27.055Z,8.87
2018-05-17T16:19:56.052Z,8.23
2018-05-17T16:22:25.120Z,7.93
2018-05-17T16:24:53.393Z,8.97
2018-05-17T16:27:21.671Z,8.97
2018-05-17T16:29:49.985Z,8.83
2018-05-17T16:32:18.995Z,9.70
2018-05-17T16:34:47.246Z,8.97
2018-05-17T16:37:16.267Z,9.00
2018-05-17T16:39:44.547Z,9.37
2018-05-17T16:42:12.796Z,8.43
2018-05-17T16:44:41.047Z,8.63
2018-05-17T16:47:10.051Z,8.90
2018-05-17T16:49:39.248Z,9.17
2018-05-17T16:52:08.394Z,9.27
2018-05-17T16:54:36.635Z,8.13
2018-05-17T16:57:04.923Z,9.10
2018-05-17T16:59:33.415Z,9.03
2018-05-17T17:02:01.939Z,8.63
2018-05-17T17:04:30.183Z,9.20
2018-05-17T17:06:58.705Z,8.80
2018-05-17T17:09:26.895Z,8.07
2018-05-17T17:11:55.539Z,8.70
2018-05-17T17:14:24.529Z,9.27
2018-05-17T17:16:52.758Z,9.13
2018-05-17T17:19:20.998Z,8.50
2018-05-17T17:21:49.995Z,9.23
2018-05-17T17:24:18.251Z,8.13
2018-05-17T17:26:46.591Z,8.50
2018-05-17T17:29:15.702Z,8.20
2018-05-17T17:31:44.883Z,8.77
2018-05-17T17:34:13.197Z,8.50
2018-05-17T17:36:41.458Z,9.03
2018-05-17T17:39:09.711Z,8.47
2018-05-17T17:41:37.953Z,8.27
2018-05-17T17:44:06.196Z,8.33
2018-05-17T17:46:35.202Z,8.57
2018-05-17T17:49:03.459Z,7.90
2018-05-17T17:51:32.459Z,8.37
2018-05-17T17:54:01.487Z,8.73
2018-05-17T17:56:29.718Z,8.37
2018-05-17T17:58:58.726Z,8.50
2018-05-17T18:01:26.970Z,8.13
2018-05-17T18:03:55.216Z,8.57
2018-05-17T18:06:23.461Z,8.07
2018-05-17T18:08:51.690Z,8.67
2018-05-17T18:11:19.942Z,7.70
2018-05-17T18:13:48.179Z,8.13
2018-05-17T18:16:16.638Z,8.30
2018-05-17T18:18:45.861Z,8.23
2018-05-17T18:21:14.092Z,8.00
2018-05-17T18:23:43.211Z,8.30
2018-05-17T18:26:12.668Z,8.33
2018-05-17T18:28:41.120Z,8.27
2018-05-17T18:31:09.551Z,7.87
2018-05-17T18:33:37.829Z,8.57
2018-05-17T18:36:07.174Z,7.00
2018-05-17T18:38:35.399Z,8.90
2018-05-17T18:41:04.565Z,8.40
2018-05-17T18:43:32.931Z,7.80
2018-05-17T18:46:01.202Z,8.23
2018-05-17T18:48:29.799Z,7.90
2018-05-17T18:50:58.120Z,7.63
2018-05-17T18:53:27.110Z,7.97
2018-05-17T18:55:55.424Z,7.60
2018-05-17T18:58:23.633Z,7.47
2018-05-17T19:00:51.932Z,7.10
2018-05-17T19:03:20.195Z,7.50
2018-05-17T19:05:50.215Z,6.80
2018-05-17T19:08:19.266Z,6.80
2018-05-17T19:10:48.663Z,6.93
2018-05-17T19:13:17.039Z,7.07
2018-05-17T19:15:45.391Z,7.40
2018-05-17T19:18:13.622Z,6.97
2018-05-17T19:20:41.855Z,7.10
2018-05-17T19:23:10.154Z,7.13
2018-05-17T19:25:39.276Z,6.93
2018-05-17T19:28:07.474Z,7.13
2018-05-17T19:30:35.706Z,6.77
2018-05-17T19:33:03.952Z,6.47
2018-05-17T19:35:32.183Z,7.23
2018-05-17T19:38:00.435Z,7.10
2018-05-17T19:40:28.671Z,6.63
2018-05-17T19:42:56.918Z,6.97
2018-05-17T19:45:25.241Z,6.67
2018-05-17T19:47:53.398Z,7.83
2018-05-17T19:50:21.643Z,6.63
2018-05-17T19:52:50.010Z,7.40
2018-05-17T19:55:18.245Z,7.57
2018-05-17T19:57:46.486Z,7.80
2018-05-17T20:00:15.482Z,7.63
2018-05-17T20:02:43.736Z,6.90
2018-05-17T20:05:11.976Z,6.70
2018-05-17T20:07:40.982Z,7.03
2018-05-17T20:10:09.211Z,7.37
2018-05-17T20:12:37.455Z,7.57
2018-05-17T20:15:05.703Z,6.97
2018-05-17T20:17:33.943Z,7.10
2018-05-17T20:20:02.187Z,6.80
2018-05-17T20:22:30.415Z,7.00
2018-05-17T20:24:59.452Z,7.20
2018-05-17T20:27:27.688Z,6.87
2018-05-17T20:29:55.938Z,7.80
2018-05-17T20:32:24.931Z,7.77
2018-05-17T20:34:54.200Z,7.63
2018-05-17T20:37:22.419Z,7.90
2018-05-17T20:39:51.429Z,7.53
2018-05-17T20:42:19.700Z,7.63
2018-05-17T20:44:47.915Z,8.07
2018-05-17T20:47:16.148Z,8.13
2018-05-17T20:49:44.398Z,8.55
2018-05-17T20:52:13.402Z,8.17
2018-05-17T20:54:41.655Z,8.50
2018-05-17T20:57:09.891Z,8.17
2018-05-17T20:59:38.135Z,8.57
2018-05-17T21:02:06.360Z,8.17
2018-05-17T21:04:34.609Z,8.03
2018-05-17T21:07:02.839Z,7.83
2018-05-17T21:09:31.859Z,7.97
2018-05-17T21:12:00.091Z,8.63
2018-05-17T21:14:29.106Z,8.57
2018-05-17T21:16:58.100Z,9.10
2018-05-17T21:19:26.346Z,8.20
2018-05-17T21:21:55.379Z,8.13
2018-05-17T21:24:23.623Z,8.67
2018-05-17T21:26:52.618Z,8.60
2018-05-17T21:29:21.631Z,8.27
2018-05-17T21:31:49.864Z,7.70
2018-05-17T21:34:18.104Z,7.93
2018-05-17T21:36:46.639Z,8.17
2018-05-17T21:39:15.655Z,8.27
2018-05-17T21:41:43.899Z,8.17
2018-05-17T21:44:12.922Z,9.27
2018-05-17T21:46:41.165Z,7.90
2018-05-17T21:49:10.161Z,8.03
2018-05-17T21:51:39.544Z,7.90
2018-05-17T21:54:07.751Z,8.00
2018-05-17T21:56:36.010Z,7.90
2018-05-17T21:59:04.998Z,7.73
2018-05-17T22:01:34.016Z,7.47
2018-05-17T22:04:02.251Z,8.20
2018-05-17T22:06:30.496Z,7.67
2018-05-17T22:08:59.494Z,7.67
2018-05-17T22:11:27.748Z,7.53
2018-05-17T22:13:55.971Z,7.83
2018-05-17T22:16:24.987Z,8.43
2018-05-17T22:18:53.535Z,7.63
2018-05-17T22:21:21.759Z,7.53
2018-05-17T22:23:50.078Z,7.97
2018-05-17T22:26:18.325Z,8.03
2018-05-17T22:28:46.560Z,7.33
2018-05-17T22:31:14.898Z,8.10
2018-05-17T22:33:43.107Z,8.77
2018-05-17T22:36:11.338Z,7.90
2018-05-17T22:38:39.587Z,7.83
2018-05-17T22:41:07.815Z,7.63
2018-05-17T22:43:37.278Z,7.73
2018-05-17T22:46:05.482Z,8.03
2018-05-17T22:48:33.718Z,7.93
2018-05-17T22:51:01.958Z,7.13
2018-05-17T22:53:30.199Z,8.27
2018-05-17T22:55:58.431Z,7.97
2018-05-17T22:58:33.362Z,7.57
2018-05-17T23:01:01.599Z,7.83
2018-05-17T23:03:30.616Z,7.80
2018-05-17T23:05:58.965Z,8.20
2018-05-17T23:08:27.187Z,7.73
2018-05-17T23:10:55.422Z,8.00
2018-05-17T23:13:23.672Z,8.60
2018-05-17T23:15:52.736Z,8.53
2018-05-17T23:18:20.981Z,8.17
2018-05-17T23:20:49.211Z,8.10
2018-05-17T23:23:17.455Z,8.20
2018-05-17T23:25:45.682Z,8.03
2018-05-17T23:28:13.939Z,8.00
2018-05-17T23:30:42.922Z,8.63
2018-05-17T23:33:11.930Z,8.37
2018-05-17T23:35:40.930Z,8.73
2018-05-17T23:38:09.173Z,9.17
2018-05-17T23:43:42.828Z,8.07
2018-05-17T23:46:11.054Z,9.10
2018-05-17T23:48:39.290Z,8.90
2018-05-17T23:51:07.519Z,8.27
2018-05-17T23:53:35.743Z,8.70
2018-05-17T23:56:03.986Z,8.57
2018-05-17T23:58:33.464Z,9.03
